Time;durP1;ratioP1;P1;durP2;ratioP2;P2;SDS_P1;SDS_P2;PMS_P1;PMS_P2;Temp;Humidity;BMP_temperature;BMP_pressure;BME280_temperature;BME280_humidity;BME280_pressure;Samples;Min_cycle;Max_cycle;Signal;HPM_P1;HPM_P2
2022/08/06 00:00:23;;;;;;;17.95;11.35;;;22.90;99.90;;;;;;4918310;29;20612;-92
2022/08/06 00:02:56;;;;;;;17.83;11.40;;;22.90;99.90;;;;;;4933353;29;20207;-91
2022/08/06 00:05:23;;;;;;;17.98;11.35;;;22.80;99.90;;;;;;4918215;29;20202;-90
2022/08/06 00:08:05;;;;;;;16.15;11.30;;;22.80;99.90;;;;;;4934413;29;20309;-92
2022/08/06 00:10:33;;;;;;;18.63;11.57;;;22.80;99.90;;;;;;4935592;29;20262;-91
2022/08/06 00:13:03;;;;;;;16.90;11.70;;;22.80;99.90;;;;;;4935881;29;20226;-93
2022/08/06 00:15:35;;;;;;;16.42;11.68;;;22.70;99.90;;;;;;4935289;29;20254;-85
2022/08/06 00:18:25;;;;;;;17.83;12.07;;;22.70;99.90;;;;;;4934579;29;20199;-88
2022/08/06 00:20:52;;;;;;;17.10;12.35;;;22.60;99.90;;;;;;4924638;29;20231;-90
2022/08/06 00:23:19;;;;;;;19.37;12.73;;;22.60;99.90;;;;;;4927303;29;20204;-90
2022/08/06 00:25:52;;;;;;;25.07;12.67;;;22.60;99.90;;;;;;4916764;29;20211;-92
2022/08/06 00:28:21;;;;;;;17.50;11.67;;;22.50;99.90;;;;;;4918416;29;20553;-90
2022/08/06 00:31:04;;;;;;;20.50;12.50;;;22.50;99.90;;;;;;4926597;29;20233;-92
2022/08/06 00:33:41;;;;;;;15.20;11.83;;;22.50;99.90;;;;;;4917954;29;20238;-91
2022/08/06 00:36:26;;;;;;;15.53;11.73;;;22.50;99.90;;;;;;4918260;29;20598;-91
2022/08/06 00:38:57;;;;;;;30.83;13.05;;;22.50;99.90;;;;;;4918581;29;20199;-92
2022/08/06 00:41:27;;;;;;;15.97;11.80;;;22.40;99.90;;;;;;4918674;29;20649;-94
2022/08/06 00:44:09;;;;;;;15.80;11.70;;;22.40;99.90;;;;;;4919604;29;20709;-92
2022/08/06 00:46:38;;;;;;;22.07;11.97;;;22.40;99.90;;;;;;4921203;29;20272;-93
2022/08/06 00:49:07;;;;;;;20.50;11.90;;;22.40;99.90;;;;;;4859922;29;1293479;-92
2022/08/06 00:51:38;;;;;;;20.23;12.00;;;22.30;99.90;;;;;;4919031;29;20215;-90
2022/08/06 00:54:18;;;;;;;21.27;12.87;;;22.30;99.90;;;;;;4920194;29;20223;-91
2022/08/06 00:56:54;;;;;;;22.77;12.50;;;22.20;99.90;;;;;;4920616;29;20660;-93
2022/08/06 00:59:21;;;;;;;21.87;13.17;;;22.20;99.90;;;;;;4937880;29;20203;-93
2022/08/06 01:01:48;;;;;;;15.70;12.50;;;22.10;99.90;;;;;;4931254;29;20294;-93
2022/08/06 01:04:18;;;;;;;21.30;12.87;;;22.10;99.90;;;;;;4924488;29;20195;-93
2022/08/06 01:06:45;;;;;;;24.07;12.90;;;22.10;99.90;;;;;;4925613;29;20203;-89
2022/08/06 01:09:22;;;;;;;18.17;12.40;;;21.90;99.90;;;;;;4923470;29;20290;-91
2022/08/06 01:11:49;;;;;;;34.03;14.17;;;21.90;99.90;;;;;;4927460;29;20534;-93
2022/08/06 01:14:17;;;;;;;17.47;12.57;;;21.90;99.90;;;;;;4928859;29;20223;-85
2022/08/06 01:17:11;;;;;;;19.03;12.50;;;21.90;99.90;;;;;;4918900;29;20205;-90
2022/08/06 01:20:15;;;;;;;16.33;12.93;;;21.90;99.90;;;;;;4920342;29;20208;-91
2022/08/06 01:23:10;;;;;;;20.67;12.93;;;21.90;99.90;;;;;;4911135;29;20234;-92
2022/08/06 01:26:12;;;;;;;19.43;12.83;;;21.80;99.90;;;;;;4919429;29;20241;-90
2022/08/06 01:29:01;;;;;;;17.67;13.10;;;21.70;99.90;;;;;;4921866;29;20295;-92
2022/08/06 01:31:43;;;;;;;16.77;12.70;;;21.70;99.90;;;;;;4911991;29;20255;-89
2022/08/06 01:34:27;;;;;;;18.60;12.57;;;21.70;99.90;;;;;;4919107;29;20250;-92
2022/08/06 01:37:08;;;;;;;17.57;12.70;;;21.70;99.90;;;;;;4924083;29;20247;-90
2022/08/06 01:39:37;;;;;;;19.73;12.83;;;21.70;99.90;;;;;;4931702;29;20366;-91
2022/08/06 01:42:32;;;;;;;23.67;12.90;;;21.60;99.90;;;;;;4921414;29;20197;-91
2022/08/06 01:45:04;;;;;;;17.97;12.77;;;21.60;99.90;;;;;;4899033;29;20208;-91
2022/08/06 01:47:33;;;;;;;24.57;13.40;;;21.50;99.90;;;;;;4900348;29;20602;-90
2022/08/06 01:50:26;;;;;;;17.07;12.87;;;21.50;99.90;;;;;;4918664;29;20326;-93
2022/08/06 01:52:57;;;;;;;19.97;13.07;;;21.50;99.90;;;;;;4922672;29;20302;-90
2022/08/06 01:55:58;;;;;;;16.50;12.80;;;21.50;99.90;;;;;;4919079;29;20223;-92
2022/08/06 01:58:30;;;;;;;16.97;12.90;;;21.50;99.90;;;;;;4886983;23;20258;-91
2022/08/06 02:01:00;;;;;;;18.37;13.13;;;21.50;99.90;;;;;;4915643;29;20217;-90
2022/08/06 02:03:32;;;;;;;22.83;13.03;;;21.40;99.90;;;;;;4926298;29;20213;-89
2022/08/06 02:06:39;;;;;;;26.93;13.70;;;21.40;99.90;;;;;;4925849;29;20649;-87
2022/08/06 02:09:13;;;;;;;20.13;12.83;;;21.40;99.90;;;;;;4921652;29;20231;-90
2022/08/06 02:12:06;;;;;;;19.00;13.47;;;21.40;99.90;;;;;;4921146;29;20211;-89
2022/08/06 02:14:54;;;;;;;17.17;13.00;;;21.40;99.90;;;;;;4920222;29;20695;-91
2022/08/06 02:17:24;;;;;;;18.50;12.70;;;21.30;99.90;;;;;;4920893;29;20226;-91
2022/08/06 02:20:15;;;;;;;19.50;11.93;;;21.30;99.90;;;;;;4921227;29;20223;-89
2022/08/06 02:23:06;;;;;;;17.93;12.67;;;21.30;99.90;;;;;;4937873;29;20209;-90
2022/08/06 02:25:39;;;;;;;21.40;12.50;;;21.30;99.90;;;;;;4921566;29;20213;-89
2022/08/06 02:28:08;;;;;;;16.17;12.23;;;21.30;99.90;;;;;;4905801;29;20239;-88
2022/08/06 02:30:38;;;;;;;17.33;12.53;;;21.30;99.90;;;;;;4921070;29;20216;-89
2022/08/06 02:33:10;;;;;;;19.27;12.77;;;21.30;99.90;;;;;;4926416;29;20199;-90
2022/08/06 02:36:08;;;;;;;21.10;12.70;;;21.20;99.90;;;;;;4920462;29;20198;-91
2022/08/06 02:39:01;;;;;;;23.23;12.63;;;21.20;99.90;;;;;;4920095;29;20194;-89
2022/08/06 02:41:53;;;;;;;17.63;12.27;;;21.20;99.90;;;;;;4899320;29;20247;-91
2022/08/06 02:44:30;;;;;;;26.33;13.73;;;21.30;99.90;;;;;;4900341;29;20303;-90
2022/08/06 02:47:07;;;;;;;17.60;13.07;;;21.20;99.90;;;;;;4900153;29;20789;-91
2022/08/06 02:49:48;;;;;;;19.53;13.03;;;21.10;99.90;;;;;;4916230;29;20199;-88
2022/08/06 02:52:30;;;;;;;15.80;12.60;;;21.10;99.90;;;;;;4900269;29;20638;-86
2022/08/06 02:55:20;;;;;;;24.57;13.00;;;21.10;99.90;;;;;;4916067;29;20242;-88
2022/08/06 02:58:01;;;;;;;18.80;12.23;;;21.10;99.90;;;;;;4901460;29;20850;-90
2022/08/06 03:00:35;;;;;;;19.20;12.60;;;21.10;99.90;;;;;;4901152;29;20213;-90
2022/08/06 03:03:07;;;;;;;19.07;12.73;;;21.10;99.90;;;;;;4939954;23;20273;-90
2022/08/06 03:05:49;;;;;;;21.50;12.97;;;21.10;99.90;;;;;;4951332;29;20210;-87
2022/08/06 03:08:26;;;;;;;16.40;12.50;;;21.10;99.90;;;;;;4936175;29;20202;-89
2022/08/06 03:10:54;;;;;;;18.40;12.80;;;21.10;99.90;;;;;;4935932;29;20285;-89
2022/08/06 03:13:22;;;;;;;21.00;13.27;;;21.00;99.90;;;;;;4949994;29;20190;-88
2022/08/06 03:15:58;;;;;;;21.37;12.97;;;21.00;99.90;;;;;;4941496;29;20209;-89
2022/08/06 03:18:29;;;;;;;19.57;13.33;;;21.00;99.90;;;;;;4943235;29;20685;-86
2022/08/06 03:20:57;;;;;;;21.70;13.47;;;21.00;99.90;;;;;;4926206;29;20215;-93
2022/08/06 03:23:29;;;;;;;18.07;13.03;;;21.00;99.90;;;;;;4924352;29;20188;-95
2022/08/06 03:25:59;;;;;;;20.00;14.00;;;21.00;99.90;;;;;;4906128;29;20218;-95
2022/08/06 03:28:33;;;;;;;19.27;13.60;;;21.00;99.90;;;;;;4920092;29;20659;-87
2022/08/06 03:31:03;;;;;;;21.90;14.33;;;21.00;99.90;;;;;;5003786;23;20252;-88
2022/08/06 03:33:38;;;;;;;25.43;13.93;;;20.90;99.90;;;;;;4925268;29;20672;-91
2022/08/06 03:36:24;;;;;;;21.93;14.10;;;20.90;99.90;;;;;;4938964;29;20636;-88
2022/08/06 03:38:58;;;;;;;22.10;14.03;;;21.00;99.90;;;;;;4955875;29;20203;-89
2022/08/06 03:41:43;;;;;;;19.03;14.10;;;21.00;99.90;;;;;;4969969;29;20201;-90
2022/08/06 03:44:30;;;;;;;23.63;14.17;;;20.90;99.90;;;;;;4944066;29;20202;-85
2022/08/06 03:47:05;;;;;;;19.07;14.03;;;21.00;99.90;;;;;;4939449;29;20532;-88
2022/08/06 03:49:56;;;;;;;20.53;13.47;;;20.90;99.90;;;;;;4955846;29;20673;-88
2022/08/06 03:52:28;;;;;;;19.17;14.00;;;20.90;99.90;;;;;;4955296;29;20186;-89
2022/08/06 03:55:03;;;;;;;21.77;13.00;;;20.90;99.90;;;;;;4938180;29;20321;-87
2022/08/06 03:57:38;;;;;;;16.67;12.50;;;20.90;99.90;;;;;;4937982;29;20607;-87
2022/08/06 04:00:15;;;;;;;20.43;12.87;;;20.90;99.90;;;;;;4938074;29;20571;-86
2022/08/06 04:02:56;;;;;;;20.03;13.43;;;20.80;99.90;;;;;;4946082;29;20194;-89
2022/08/06 04:05:25;;;;;;;20.47;13.50;;;20.80;99.90;;;;;;4942138;29;20278;-91
2022/08/06 04:07:58;;;;;;;23.27;13.20;;;20.80;99.90;;;;;;4948115;29;20202;-90
2022/08/06 04:10:38;;;;;;;18.27;13.07;;;20.80;99.90;;;;;;4954083;29;20636;-91
2022/08/06 04:13:11;;;;;;;19.33;12.67;;;20.90;99.90;;;;;;4960369;29;20213;-91
2022/08/06 04:16:00;;;;;;;18.07;13.03;;;20.90;99.90;;;;;;4960263;29;20214;-90
2022/08/06 04:18:32;;;;;;;18.10;12.90;;;20.90;99.90;;;;;;4942668;29;20198;-87
2022/08/06 04:21:16;;;;;;;17.60;13.20;;;21.00;99.90;;;;;;4928707;29;20226;-90
2022/08/06 04:23:48;;;;;;;18.13;13.07;;;20.90;99.90;;;;;;4939855;29;20209;-94
2022/08/06 04:26:22;;;;;;;18.03;13.83;;;21.00;99.90;;;;;;4924292;29;20210;-90
2022/08/06 04:28:55;;;;;;;22.97;13.57;;;20.90;99.90;;;;;;4941195;29;20269;-90
2022/08/06 04:31:33;;;;;;;18.37;13.30;;;20.90;99.90;;;;;;4939361;29;20235;-87
2022/08/06 04:34:24;;;;;;;24.63;14.17;;;20.90;99.90;;;;;;4939628;29;20227;-92
2022/08/06 04:36:56;;;;;;;17.83;13.03;;;20.90;99.90;;;;;;4922947;29;20305;-86
2022/08/06 04:39:23;;;;;;;21.23;14.37;;;20.80;99.90;;;;;;4940310;29;20238;-88
2022/08/06 04:42:07;;;;;;;21.70;13.47;;;20.80;99.90;;;;;;4939300;29;20621;-87
2022/08/06 04:44:36;;;;;;;21.80;13.93;;;20.80;99.90;;;;;;4922957;29;20203;-88
2022/08/06 04:47:10;;;;;;;18.33;13.40;;;20.80;99.90;;;;;;4922503;29;20610;-85
2022/08/06 04:49:44;;;;;;;19.97;13.37;;;20.80;99.90;;;;;;4924883;29;20202;-87
2022/08/06 04:52:29;;;;;;;18.37;13.77;;;21.00;99.90;;;;;;4922041;29;20201;-87
2022/08/06 04:55:12;;;;;;;18.90;13.97;;;20.80;99.90;;;;;;4921915;29;20218;-86
2022/08/06 04:57:50;;;;;;;17.07;13.90;;;20.80;99.90;;;;;;4938652;29;20210;-87
2022/08/06 05:00:31;;;;;;;19.13;13.37;;;20.90;99.90;;;;;;4954830;29;20263;-86
2022/08/06 05:03:18;;;;;;;18.93;13.53;;;20.90;99.90;;;;;;4921785;29;20202;-88
2022/08/06 05:06:45;;;;;;;17.37;13.17;;;20.80;99.90;;;;;;4941370;29;20187;-87
2022/08/06 05:09:23;;;;;;;18.40;13.27;;;20.80;99.90;;;;;;4861760;29;20236;-88
2022/08/06 05:12:45;;;;;;;19.60;13.23;;;20.80;99.90;;;;;;4846618;29;20296;-89
2022/08/06 05:15:27;;;;;;;18.07;12.60;;;20.80;99.90;;;;;;4845255;29;20233;-88
2022/08/06 05:18:19;;;;;;;17.47;12.43;;;20.90;99.90;;;;;;4862319;29;20201;-87
2022/08/06 05:21:08;;;;;;;16.60;12.50;;;20.90;99.90;;;;;;4860825;29;20317;-87
2022/08/06 05:23:47;;;;;;;18.17;11.93;;;20.90;99.90;;;;;;4846266;29;20205;-89
2022/08/06 05:26:19;;;;;;;14.73;11.10;;;21.00;99.90;;;;;;4846021;29;20201;-86
2022/08/06 05:28:52;;;;;;;14.93;11.30;;;21.10;99.90;;;;;;4846272;29;20202;-86
2022/08/06 05:31:34;;;;;;;16.67;10.70;;;21.20;99.90;;;;;;4860910;29;20234;-85
2022/08/06 05:34:08;;;;;;;14.17;10.17;;;21.20;99.90;;;;;;4847066;29;20308;-86
2022/08/06 05:36:35;;;;;;;13.57;10.57;;;21.40;99.90;;;;;;4845997;29;20229;-89
2022/08/06 05:39:02;;;;;;;12.83;9.20;;;21.50;99.90;;;;;;4861906;29;20221;-88
2022/08/06 05:41:29;;;;;;;13.70;9.73;;;21.50;99.90;;;;;;4845796;29;20273;-85
2022/08/06 05:44:04;;;;;;;12.43;9.53;;;21.50;99.90;;;;;;4925923;23;20240;-85
2022/08/06 05:46:40;;;;;;;13.17;9.03;;;21.50;99.90;;;;;;4921253;29;20687;-88
2022/08/06 05:49:30;;;;;;;12.00;8.53;;;21.60;99.90;;;;;;4920849;29;20229;-88
2022/08/06 05:52:26;;;;;;;15.73;8.50;;;21.60;99.90;;;;;;4923323;29;20210;-88
2022/08/06 05:55:18;;;;;;;11.07;9.03;;;21.60;99.90;;;;;;4922577;29;20234;-87
2022/08/06 05:58:01;;;;;;;13.00;8.67;;;21.50;99.90;;;;;;4942233;29;20229;-88
2022/08/06 06:00:32;;;;;;;12.23;8.80;;;21.40;99.90;;;;;;4926497;29;20206;-86
2022/08/06 06:03:15;;;;;;;13.20;8.33;;;21.40;99.90;;;;;;4922343;29;20246;-86
2022/08/06 06:05:56;;;;;;;14.60;8.83;;;21.30;99.90;;;;;;4919393;29;20201;-86
2022/08/06 06:08:37;;;;;;;13.03;8.80;;;21.30;99.90;;;;;;4938205;29;20187;-88
2022/08/06 06:11:24;;;;;;;11.43;8.77;;;21.30;99.90;;;;;;4920796;29;20198;-81
2022/08/06 06:14:30;;;;;;;11.67;8.50;;;21.30;99.90;;;;;;4920035;29;20199;-86
2022/08/06 06:17:34;;;;;;;10.83;8.80;;;21.30;99.90;;;;;;4920834;29;20207;-87
2022/08/06 06:20:20;;;;;;;10.63;8.70;;;21.40;99.90;;;;;;4921640;29;20250;-87
2022/08/06 06:23:19;;;;;;;12.17;8.87;;;21.30;99.90;;;;;;4942740;29;20198;-86
2022/08/06 06:26:08;;;;;;;10.03;8.63;;;21.30;99.90;;;;;;4914952;29;20335;-86
2022/08/06 06:29:19;;;;;;;12.40;8.97;;;21.40;99.90;;;;;;4928379;29;20286;-84
2022/08/06 06:32:33;;;;;;;12.73;9.03;;;21.30;99.90;;;;;;4904597;29;20201;-80
2022/08/06 06:35:21;;;;;;;11.70;8.20;;;21.40;99.90;;;;;;4917937;29;20246;-88
2022/08/06 06:38:09;;;;;;;12.20;8.20;;;21.40;99.90;;;;;;4920209;29;20199;-85
2022/08/06 06:40:58;;;;;;;10.97;7.87;;;21.60;99.90;;;;;;4917091;29;20199;-85
2022/08/06 06:43:35;;;;;;;9.47;7.27;;;21.60;99.90;;;;;;4901122;29;20318;-91
2022/08/06 06:46:41;;;;;;;8.67;6.83;;;21.60;99.90;;;;;;4909259;29;20191;-86
2022/08/06 06:49:29;;;;;;;11.13;7.47;;;21.70;99.90;;;;;;4917545;29;20561;-86
2022/08/06 06:52:27;;;;;;;10.80;7.00;;;21.70;99.90;;;;;;4900480;29;20207;-85
2022/08/06 06:55:28;;;;;;;11.40;7.70;;;21.70;99.90;;;;;;4911621;29;20281;-87
2022/08/06 06:58:32;;;;;;;8.60;6.97;;;21.70;99.90;;;;;;4879302;29;20203;-85
2022/08/06 07:01:03;;;;;;;11.60;7.53;;;21.70;99.90;;;;;;4909183;29;20190;-86
2022/08/06 07:04:21;;;;;;;7.90;6.60;;;21.70;99.90;;;;;;4947037;29;20267;-83
2022/08/06 07:06:55;;;;;;;9.10;7.10;;;21.70;99.90;;;;;;4911451;29;20303;-86
2022/08/06 07:09:37;;;;;;;9.47;6.93;;;21.70;99.90;;;;;;4901488;29;20211;-86
2022/08/06 07:12:32;;;;;;;9.03;6.63;;;21.70;99.90;;;;;;4885919;29;20215;-88
2022/08/06 07:15:21;;;;;;;8.17;6.30;;;21.60;99.90;;;;;;4930556;29;20214;-87
2022/08/06 07:17:51;;;;;;;10.33;6.17;;;21.60;99.90;;;;;;4919639;29;20190;-87
2022/08/06 07:20:29;;;;;;;8.27;5.90;;;21.60;99.90;;;;;;4950438;29;20218;-84
2022/08/06 07:23:08;;;;;;;8.83;4.83;;;21.70;99.90;;;;;;4924189;29;20273;-88
2022/08/06 07:25:55;;;;;;;7.17;4.37;;;21.60;99.90;;;;;;4919013;29;20652;-86
2022/08/06 07:28:26;;;;;;;5.83;4.23;;;21.60;99.90;;;;;;4904384;29;20194;-85
2022/08/06 07:30:58;;;;;;;6.50;4.13;;;21.60;99.90;;;;;;4950128;29;20553;-89
2022/08/06 07:33:41;;;;;;;5.53;4.30;;;21.60;99.90;;;;;;4900206;29;20251;-86
2022/08/06 07:36:31;;;;;;;5.93;4.17;;;21.50;99.90;;;;;;4894731;29;20231;-88
2022/08/06 07:39:10;;;;;;;6.07;4.20;;;21.50;99.90;;;;;;4916998;29;20199;-89
2022/08/06 07:41:42;;;;;;;6.00;4.20;;;21.60;99.90;;;;;;4885739;29;20207;-90
2022/08/06 07:44:31;;;;;;;5.87;4.03;;;21.70;99.90;;;;;;4904355;29;20275;-88
2022/08/06 07:47:40;;;;;;;6.30;4.20;;;21.60;99.90;;;;;;4892718;29;20195;-88
2022/08/06 07:50:23;;;;;;;6.27;4.60;;;21.40;99.90;;;;;;4912956;29;20217;-86
2022/08/06 07:52:55;;;;;;;6.37;5.00;;;21.30;99.90;;;;;;4938613;29;20187;-85
2022/08/06 07:55:25;;;;;;;7.70;5.10;;;21.20;99.90;;;;;;4922281;29;20219;-88
2022/08/06 07:58:07;;;;;;;9.33;5.40;;;21.10;99.90;;;;;;4918719;29;20234;-85
2022/08/06 08:00:35;;;;;;;7.87;5.37;;;21.00;99.90;;;;;;4904008;29;20290;-86
2022/08/06 08:06:17;;;;;;;6.40;5.03;;;20.80;99.90;;;;;;4903519;29;20336;-85
2022/08/06 08:09:02;;;;;;;4.87;4.20;;;20.80;99.90;;;;;;4903073;29;20219;-87
2022/08/06 08:11:43;;;;;;;6.00;4.10;;;20.70;99.90;;;;;;4910005;29;20255;-89
2022/08/06 08:14:31;;;;;;;6.47;4.00;;;20.70;99.90;;;;;;4906828;29;20204;-87
2022/08/06 08:16:58;;;;;;;7.00;3.80;;;20.70;99.90;;;;;;4903075;29;20227;-86
2022/08/06 08:19:30;;;;;;;4.87;3.80;;;20.70;99.90;;;;;;4903632;29;20681;-87
2022/08/06 08:22:05;;;;;;;5.90;3.67;;;20.70;99.90;;;;;;4903130;29;20247;-86
2022/08/06 08:24:34;;;;;;;3.80;3.40;;;20.70;99.90;;;;;;4905101;29;20214;-87
2022/08/06 08:27:03;;;;;;;4.43;3.30;;;20.70;99.90;;;;;;4925991;29;20191;-89
2022/08/06 08:29:48;;;;;;;6.57;3.37;;;20.70;99.90;;;;;;4909216;29;20238;-86
2022/08/06 08:32:23;;;;;;;3.17;2.80;;;20.70;99.90;;;;;;4923171;29;20253;-87
2022/08/06 08:34:50;;;;;;;3.90;2.87;;;20.60;99.90;;;;;;4923959;29;20205;-87
2022/08/06 08:37:20;;;;;;;5.13;2.73;;;20.50;99.90;;;;;;4922295;29;20230;-88
2022/08/06 08:39:48;;;;;;;5.07;2.80;;;20.50;99.90;;;;;;4924717;29;20195;-84
2022/08/06 08:42:19;;;;;;;8.03;3.70;;;20.40;99.90;;;;;;4921766;29;20727;-84
2022/08/06 08:45:00;;;;;;;7.70;3.33;;;20.30;99.90;;;;;;4920263;29;20196;-85
2022/08/06 08:47:31;;;;;;;5.57;2.63;;;20.10;99.90;;;;;;4903153;29;20214;-82
2022/08/06 08:50:26;;;;;;;4.20;2.90;;;20.00;99.90;;;;;;4920242;29;20192;-86
2022/08/06 08:53:09;;;;;;;4.93;3.17;;;19.90;99.90;;;;;;4904980;29;20221;-87
2022/08/06 08:55:36;;;;;;;4.17;3.03;;;19.70;99.90;;;;;;4921494;29;20723;-87
2022/08/06 08:58:24;;;;;;;6.37;3.60;;;19.70;99.90;;;;;;4907767;29;20210;-86
2022/08/06 09:01:11;;;;;;;7.00;4.33;;;19.60;99.90;;;;;;4902534;29;20199;-85
2022/08/06 09:04:02;;;;;;;8.83;4.43;;;19.50;99.90;;;;;;4920318;29;20224;-86
2022/08/06 09:06:32;;;;;;;5.73;4.37;;;19.40;99.90;;;;;;4902818;29;20206;-88
2022/08/06 09:09:06;;;;;;;7.57;3.90;;;19.40;99.90;;;;;;4902372;29;20442;-85
2022/08/06 09:11:42;;;;;;;7.63;4.00;;;19.30;99.90;;;;;;4902549;29;20210;-84
2022/08/06 09:14:29;;;;;;;5.73;3.73;;;19.40;99.90;;;;;;4902470;29;20615;-85
2022/08/06 09:17:01;;;;;;;11.50;4.07;;;19.50;99.90;;;;;;4903975;29;20215;-82
2022/08/06 09:19:31;;;;;;;11.20;4.47;;;19.50;99.90;;;;;;4906069;29;20294;-83
2022/08/06 09:22:05;;;;;;;5.93;3.73;;;19.50;99.90;;;;;;4890034;29;20250;-83
2022/08/06 09:24:35;;;;;;;7.60;2.70;;;19.50;99.90;;;;;;4933998;29;20203;-82
2022/08/06 09:27:10;;;;;;;4.23;3.10;;;19.50;99.90;;;;;;4905919;29;20294;-81
2022/08/06 09:30:00;;;;;;;8.20;2.73;;;19.40;99.90;;;;;;4901790;29;20291;-84
2022/08/06 09:32:47;;;;;;;5.37;2.90;;;19.30;99.90;;;;;;4913096;29;20192;-81
2022/08/06 09:35:28;;;;;;;4.27;2.83;;;19.30;99.90;;;;;;4894955;29;20229;-82
2022/08/06 09:38:12;;;;;;;6.67;3.83;;;19.20;99.90;;;;;;4914012;29;20208;-83
2022/08/06 09:41:08;;;;;;;5.80;4.43;;;19.20;99.90;;;;;;4895408;29;20295;-84
2022/08/06 09:43:43;;;;;;;6.60;4.60;;;19.10;99.90;;;;;;4901025;29;20234;-80
2022/08/06 09:46:45;;;;;;;9.00;4.70;;;19.10;99.90;;;;;;4917284;29;20238;-81
2022/08/06 09:49:17;;;;;;;8.03;5.10;;;19.10;99.90;;;;;;4933201;29;20211;-82
2022/08/06 09:52:16;;;;;;;7.77;5.07;;;19.00;99.90;;;;;;4918934;29;20195;-83
2022/08/06 09:54:46;;;;;;;8.23;5.70;;;18.90;99.90;;;;;;4919788;29;20230;-83
2022/08/06 09:57:23;;;;;;;8.87;5.90;;;18.90;99.90;;;;;;4920341;29;20321;-83
2022/08/06 10:00:02;;;;;;;10.27;6.17;;;18.80;99.90;;;;;;4914240;29;20262;-79
2022/08/06 10:02:33;;;;;;;9.73;7.13;;;18.80;99.90;;;;;;4918749;29;20321;-77
2022/08/06 10:05:10;;;;;;;8.43;6.40;;;18.80;99.90;;;;;;4917467;29;20282;-78
2022/08/06 10:08:11;;;;;;;8.57;6.00;;;18.70;99.90;;;;;;4929044;29;20203;-78
2022/08/06 10:10:48;;;;;;;10.37;5.90;;;18.70;99.90;;;;;;4913085;29;20663;-77
2022/08/06 10:13:24;;;;;;;10.50;6.17;;;18.70;99.90;;;;;;4934981;29;20711;-77
2022/08/06 10:15:53;;;;;;;8.07;6.07;;;18.70;99.90;;;;;;4915252;29;20252;-78
2022/08/06 10:18:43;;;;;;;8.57;5.87;;;18.70;99.90;;;;;;4918772;29;20206;-76
2022/08/06 10:21:29;;;;;;;9.10;5.17;;;18.70;99.90;;;;;;4911429;29;20223;-79
2022/08/06 10:24:06;;;;;;;12.73;6.53;;;18.50;99.90;;;;;;4936643;29;20199;-79
2022/08/06 10:26:34;;;;;;;8.63;5.80;;;18.50;99.90;;;;;;4919592;29;20294;-75
2022/08/06 10:29:04;;;;;;;12.37;6.10;;;18.50;99.90;;;;;;4916666;29;20293;-74
2022/08/06 10:31:35;;;;;;;8.57;4.20;;;18.60;99.90;;;;;;4909465;29;20296;-77
2022/08/06 10:34:11;;;;;;;8.27;4.07;;;18.40;99.90;;;;;;4916912;29;20209;-76
2022/08/06 10:36:54;;;;;;;8.00;4.57;;;18.20;99.90;;;;;;4917207;29;20226;-73
2022/08/06 10:39:31;;;;;;;8.67;4.60;;;18.20;99.90;;;;;;4917621;29;20289;-77
2022/08/06 10:42:19;;;;;;;7.43;3.53;;;18.10;99.90;;;;;;4918314;29;20286;-80
2022/08/06 10:44:52;;;;;;;5.43;3.60;;;18.10;99.90;;;;;;4913529;29;20353;-76
2022/08/06 10:47:21;;;;;;;7.43;3.20;;;18.10;99.90;;;;;;4917056;29;20244;-75
2022/08/06 10:50:10;;;;;;;4.67;3.10;;;18.00;99.90;;;;;;4918032;29;20203;-75
2022/08/06 10:52:57;;;;;;;6.30;3.07;;;18.00;99.90;;;;;;4918685;29;20202;-74
2022/08/06 10:55:29;;;;;;;7.07;3.80;;;18.00;99.90;;;;;;4919149;29;20302;-74
2022/08/06 10:58:11;;;;;;;5.83;3.40;;;18.00;99.90;;;;;;4919161;29;20267;-76
2022/08/06 11:00:41;;;;;;;7.40;3.90;;;18.10;99.90;;;;;;4919380;29;20245;-76
2022/08/06 11:03:30;;;;;;;4.60;3.70;;;18.20;99.90;;;;;;4918974;29;20286;-79
2022/08/06 11:06:11;;;;;;;6.87;3.90;;;18.10;99.90;;;;;;4914630;29;20620;-80
2022/08/06 11:08:51;;;;;;;8.20;4.70;;;17.90;99.90;;;;;;4907017;29;20202;-87
2022/08/06 11:12:00;;;;;;;10.20;4.57;;;17.70;99.90;;;;;;4927194;29;20199;-87
2022/08/06 11:14:37;;;;;;;6.70;4.57;;;17.80;99.90;;;;;;4908295;29;20235;-88
2022/08/06 11:17:05;;;;;;;6.40;4.53;;;17.80;99.90;;;;;;4922289;29;20234;-84
2022/08/06 11:19:45;;;;;;;5.77;4.17;;;17.90;99.90;;;;;;4923008;29;20234;-76
2022/08/06 11:22:35;;;;;;;6.33;3.50;;;18.00;99.90;;;;;;4926751;29;20231;-89
2022/08/06 11:25:04;;;;;;;5.90;3.40;;;18.10;99.90;;;;;;4922989;29;20716;-83
2022/08/06 11:28:01;;;;;;;6.20;3.40;;;18.00;99.90;;;;;;4918794;29;20191;-87
2022/08/06 11:30:38;;;;;;;7.77;3.63;;;18.00;99.90;;;;;;4917571;29;20297;-72
2022/08/06 11:33:05;;;;;;;6.83;3.57;;;18.00;99.90;;;;;;4904966;29;20279;-84
2022/08/06 11:35:33;;;;;;;5.80;3.27;;;18.10;99.90;;;;;;4901162;29;20200;-89
2022/08/06 11:38:10;;;;;;;4.27;2.97;;;18.10;99.90;;;;;;4900007;29;20639;-88
2022/08/06 11:41:07;;;;;;;5.30;3.23;;;18.10;99.90;;;;;;4905271;29;20194;-70
2022/08/06 11:43:53;;;;;;;4.30;3.13;;;18.00;99.90;;;;;;4935528;29;20226;-72
2022/08/06 11:46:32;;;;;;;10.33;3.60;;;17.90;99.90;;;;;;4918427;29;20198;-82
2022/08/06 11:49:14;;;;;;;5.47;2.67;;;17.90;99.90;;;;;;4935973;29;20753;-82
2022/08/06 11:51:48;;;;;;;9.03;3.23;;;17.70;99.90;;;;;;4935234;29;20194;-73
2022/08/06 11:54:18;;;;;;;4.37;2.60;;;17.70;99.90;;;;;;4918145;29;20206;-71
2022/08/06 11:57:08;;;;;;;4.37;2.10;;;17.60;99.90;;;;;;4903841;29;20710;-81
2022/08/06 11:59:55;;;;;;;3.47;2.47;;;17.60;99.90;;;;;;4918226;29;20199;-77
2022/08/06 12:02:53;;;;;;;2.93;2.23;;;17.50;99.90;;;;;;4918233;29;20217;-84
2022/08/06 12:05:22;;;;;;;6.67;2.80;;;17.40;99.90;;;;;;4857834;29;20663;-82
2022/08/06 12:08:11;;;;;;;4.20;2.47;;;17.50;99.90;;;;;;4858238;29;20630;-79
2022/08/06 12:11:28;;;;;;;5.60;2.80;;;17.50;99.90;;;;;;4842733;29;20325;-82
2022/08/06 12:14:02;;;;;;;7.73;3.80;;;17.50;99.90;;;;;;4828391;29;20663;-85
2022/08/06 12:16:48;;;;;;;3.93;2.77;;;17.60;99.90;;;;;;4829873;29;20233;-76
2022/08/06 12:19:21;;;;;;;3.50;2.60;;;17.60;99.90;;;;;;4840728;29;20615;-90
2022/08/06 12:21:54;;;;;;;4.00;2.70;;;17.50;99.90;;;;;;4843997;29;20233;-83
2022/08/06 12:24:25;;;;;;;4.63;2.53;;;17.40;99.90;;;;;;4857053;29;20288;-83
2022/08/06 12:27:13;;;;;;;4.50;2.93;;;17.30;99.90;;;;;;4842088;29;20212;-81
2022/08/06 12:29:42;;;;;;;4.93;3.30;;;17.30;99.90;;;;;;4844849;29;20656;-78
2022/08/06 12:32:33;;;;;;;15.30;3.67;;;17.40;99.90;;;;;;4845533;29;20233;-80
2022/08/06 12:35:12;;;;;;;5.67;2.90;;;17.30;99.90;;;;;;4847258;29;20301;-84
2022/08/06 12:37:42;;;;;;;7.23;2.70;;;17.30;99.90;;;;;;4861062;29;20318;-80
2022/08/06 12:40:27;;;;;;;4.90;2.97;;;17.30;99.90;;;;;;4838837;29;20209;-87
2022/08/06 12:43:02;;;;;;;4.33;2.57;;;17.30;99.90;;;;;;4903646;29;20278;-79
2022/08/06 12:45:40;;;;;;;8.23;2.77;;;17.30;99.90;;;;;;4908542;29;20207;-86
2022/08/06 12:48:27;;;;;;;8.50;2.77;;;17.30;99.90;;;;;;4921217;29;20214;-87
2022/08/06 12:51:11;;;;;;;6.00;2.80;;;17.20;99.90;;;;;;4921952;29;20215;-90
2022/08/06 12:53:50;;;;;;;6.80;3.17;;;17.30;99.90;;;;;;4921341;29;20218;-88
2022/08/06 12:56:22;;;;;;;4.17;3.10;;;17.30;99.90;;;;;;4914478;29;20719;-92
2022/08/06 12:58:57;;;;;;;4.63;2.93;;;17.40;99.90;;;;;;4922290;29;20293;-86
2022/08/06 13:01:27;;;;;;;6.17;2.90;;;17.40;99.90;;;;;;4921221;29;20198;-87
2022/08/06 13:04:15;;;;;;;5.10;3.17;;;17.50;99.90;;;;;;4920645;29;20203;-83
2022/08/06 13:06:44;;;;;;;7.30;3.60;;;17.70;99.90;;;;;;4920778;29;20207;-85
2022/08/06 13:09:27;;;;;;;6.50;2.50;;;18.00;99.90;;;;;;4920225;29;20607;-86
2022/08/06 13:12:17;;;;;;;4.70;2.70;;;18.10;99.90;;;;;;4919672;29;20209;-86
2022/08/06 13:14:56;;;;;;;6.37;2.60;;;18.40;99.90;;;;;;4920612;29;20238;-84
2022/08/06 13:17:36;;;;;;;5.07;2.70;;;18.30;99.90;;;;;;4937228;29;20302;-84
2022/08/06 13:20:22;;;;;;;3.93;2.10;;;18.30;99.90;;;;;;4920145;29;20213;-79
2022/08/06 13:22:58;;;;;;;4.27;2.53;;;18.40;99.90;;;;;;4919952;29;20573;-82
2022/08/06 13:25:25;;;;;;;8.13;2.97;;;18.50;99.90;;;;;;4937221;29;20222;-81
2022/08/06 13:28:17;;;;;;;3.87;2.50;;;18.80;99.90;;;;;;4920415;29;20213;-86
2022/08/06 13:30:55;;;;;;;4.93;2.60;;;19.20;99.90;;;;;;4920915;29;20191;-84
2022/08/06 13:33:24;;;;;;;3.83;2.10;;;19.70;99.90;;;;;;4909770;29;20196;-82
2022/08/06 13:36:07;;;;;;;6.83;2.23;;;20.00;99.90;;;;;;4908762;29;20230;-81
2022/08/06 13:38:38;;;;;;;5.37;1.80;;;20.80;99.90;;;;;;4919393;29;20206;-79
2022/08/06 13:41:08;;;;;;;3.27;1.60;;;21.20;99.90;;;;;;4908784;29;20199;-78
2022/08/06 13:43:43;;;;;;;3.50;1.53;;;21.50;99.90;;;;;;4906691;29;20237;-78
2022/08/06 13:46:25;;;;;;;11.40;2.23;;;21.50;99.90;;;;;;4910488;29;20203;-83